»·PEaware :: DAL2666 KSLC-KRNO

DAL2666 :: KSLC-KRNO

FLIGHT INFORMATION

Flight Status: Arrived
Operator:
Delta Air Lines
More flights by this operator :: More flights under this callsign
Pilot: John C. (18682)
Aircraft: BOEING 737-800
(B738)
More flights by this aircraft type
Origin: KSLC Salt Lake City Intl
United States
Destination: KRNO Reno/Tahoe Intl
United States
More flights between these airports :: More routes between these airports
Route: +DEZRT1 BAM MYBAD MYBAD2
File this flight plan on PilotEdge
Remarks:
Altitude:
(Current/Filed)
40,000ft
Speed:
(Current/Filed)
453kts
Departed: 27-Sep-20 10:02 AM
Arrived: 27-Sep-20 11:06 AM
Distance/Time
Traveled:
366nm/1:04
Distance/Time
To Go:
Arrived

Flight Plot

Page will automatically refresh every two minutes.

Flight plan parsing failed; only flown route is shown


Map Options




Map Legend


Flown Route
Filed Route
Departure Airport
Arrival Airport
Navaid (VOR, NDB)
Fix

Horizontal Profiles

Position Reports

Time Latitude Longitude Heading Altitude Ground
Speed
27-Sep-20 09:36 40.786916 -111.979527 155 4237ft 0kts
27-Sep-20 09:37 40.786916 -111.979527 155 4237ft 0kts
27-Sep-20 09:38 40.786916 -111.979527 154 4237ft 0kts
27-Sep-20 09:39 40.786916 -111.979527 154 4237ft 0kts
27-Sep-20 09:40 40.786916 -111.979527 154 4237ft 0kts
27-Sep-20 09:41 40.786916 -111.979527 154 4237ft 0kts
27-Sep-20 09:42 40.786916 -111.979527 154 4237ft 0kts
27-Sep-20 09:43 40.786916 -111.979527 154 4237ft 0kts
27-Sep-20 09:45 40.786916 -111.979527 154 4237ft 0kts
27-Sep-20 09:46 40.786916 -111.979527 154 4237ft 0kts
27-Sep-20 09:47 40.786916 -111.979527 154 4237ft 0kts
27-Sep-20 09:48 40.786916 -111.979527 154 4237ft 0kts
27-Sep-20 09:49 40.786916 -111.979527 154 4237ft 0kts
27-Sep-20 09:50 40.786916 -111.979527 154 4237ft 0kts
27-Sep-20 09:51 40.786917 -111.979527 154 4237ft 0kts
27-Sep-20 09:52 40.787392 -111.979819 154 4237ft 1kts
27-Sep-20 09:53 40.787436 -111.980377 24 4237ft 1kts
27-Sep-20 09:54 40.787355 -111.980412 18 4237ft 0kts
27-Sep-20 09:55 40.787355 -111.980412 18 4237ft 0kts
27-Sep-20 09:56 40.789599 -111.979295 70 4237ft 9kts
27-Sep-20 09:57 40.788659 -111.976925 174 4237ft 11kts
27-Sep-20 09:58 40.784318 -111.976425 174 4237ft 18kts
27-Sep-20 09:58 40.780307 -111.975953 174 4237ft 15kts
27-Sep-20 10:00 40.775490 -111.974899 174 4237ft 12kts
27-Sep-20 10:01 40.774505 -111.974145 79 4237ft 10kts
27-Sep-20 10:01 40.778668 -111.973591 354 4237ft 77kts
27-Sep-20 10:02 40.819781 -111.985290 312 5430ft 189kts
27-Sep-20 10:03 40.840669 -112.057553 291 6901ft 251kts
27-Sep-20 10:05 40.866589 -112.160591 291 10005ft 266kts
27-Sep-20 10:05 40.872142 -112.241441 272 11617ft 269kts
27-Sep-20 10:06 40.872019 -112.355470 272 12937ft 339kts
27-Sep-20 10:07 40.869653 -112.482483 267 15008ft 356kts
27-Sep-20 10:08 40.860177 -112.609836 267 15018ft 349kts
27-Sep-20 10:09 40.849541 -112.738381 267 16657ft 357kts
27-Sep-20 10:10 40.841477 -112.870101 274 19231ft 364kts
27-Sep-20 10:11 40.842265 -113.005985 274 21468ft 377kts
27-Sep-20 10:12 40.842791 -113.146623 275 23538ft 387kts
27-Sep-20 10:13 40.843103 -113.289831 275 25425ft 396kts
27-Sep-20 10:14 40.843242 -113.436506 275 27128ft 404kts
27-Sep-20 10:15 40.843202 -113.586026 275 28666ft 411kts
27-Sep-20 10:16 40.842944 -113.738455 275 30069ft 419kts
27-Sep-20 10:17 40.842116 -113.892847 274 31589ft 420kts
27-Sep-20 10:18 40.840673 -114.045749 275 33264ft 413kts
27-Sep-20 10:19 40.839532 -114.195809 275 34727ft 407kts
27-Sep-20 10:20 40.838344 -114.344874 275 35994ft 404kts
27-Sep-20 10:21 40.837011 -114.492428 275 37033ft 403kts
27-Sep-20 10:22 40.835489 -114.640501 275 37952ft 403kts
27-Sep-20 10:23 40.828750 -114.788707 268 38876ft 409kts
27-Sep-20 10:24 40.812275 -114.937406 268 39735ft 410kts
27-Sep-20 10:25 40.795436 -115.086699 267 40256ft 416kts
27-Sep-20 10:26 40.778012 -115.239314 266 40421ft 425kts
27-Sep-20 10:27 40.760285 -115.392304 266 40420ft 421kts
27-Sep-20 10:28 40.741905 -115.545078 266 40421ft 422kts
27-Sep-20 10:29 40.723636 -115.697454 265 40420ft 423kts
27-Sep-20 10:30 40.705213 -115.850483 265 40420ft 422kts
27-Sep-20 10:31 40.686713 -116.002921 265 40421ft 422kts
27-Sep-20 10:32 40.668009 -116.155417 265 40420ft 422kts
27-Sep-20 10:33 40.649117 -116.307762 265 40430ft 422kts
27-Sep-20 10:34 40.629989 -116.460295 265 40439ft 422kts
27-Sep-20 10:35 40.610662 -116.612730 265 40438ft 422kts
27-Sep-20 10:36 40.591100 -116.765160 264 40439ft 423kts
27-Sep-20 10:37 40.571410 -116.917003 264 40439ft 422kts
27-Sep-20 10:38 40.552171 -117.068619 264 40438ft 418kts
27-Sep-20 10:39 40.533839 -117.219439 264 40439ft 418kts
27-Sep-20 10:40 40.515614 -117.369873 264 40439ft 419kts
27-Sep-20 10:41 40.497167 -117.521049 264 40428ft 418kts
27-Sep-20 10:42 40.478637 -117.671277 263 40420ft 414kts
27-Sep-20 10:43 40.460028 -117.820248 263 40214ft 413kts
27-Sep-20 10:44 40.441387 -117.968030 263 37869ft 411kts
27-Sep-20 10:45 40.422559 -118.115873 263 35299ft 413kts
27-Sep-20 10:46 40.403312 -118.265669 263 32241ft 422kts
27-Sep-20 10:47 40.369305 -118.410571 245 29862ft 419kts
27-Sep-20 10:48 40.310648 -118.540034 242 27613ft 409kts
27-Sep-20 10:49 40.254214 -118.667050 245 25419ft 397kts
27-Sep-20 10:50 40.204792 -118.793161 246 23856ft 389kts
27-Sep-20 10:51 40.156296 -118.916745 245 21850ft 381kts
27-Sep-20 10:52 40.108351 -119.038423 245 19820ft 375kts
27-Sep-20 10:53 40.060840 -119.158297 244 17846ft 370kts
27-Sep-20 10:54 40.013703 -119.275989 244 15939ft 363kts
27-Sep-20 10:55 39.967479 -119.391612 243 14093ft 355kts
27-Sep-20 10:56 39.919631 -119.502815 237 11956ft 358kts
27-Sep-20 10:57 39.868964 -119.607512 237 11057ft 319kts
27-Sep-20 10:58 39.811395 -119.684330 223 10351ft 285kts
27-Sep-20 10:59 39.757825 -119.749808 223 9116ft 255kts
27-Sep-20 11:00 39.694350 -119.769382 177 7910ft 226kts
27-Sep-20 11:01 39.634237 -119.769176 179 6742ft 206kts
27-Sep-20 11:02 39.582111 -119.769164 179 5807ft 172kts
27-Sep-20 11:03 39.535282 -119.769058 180 4904ft 168kts
27-Sep-20 11:04 39.494162 -119.769279 179 4410ft 73kts
27-Sep-20 11:05 39.489566 -119.771469 338 4413ft 11kts
27-Sep-20 11:06 39.494945 -119.771527 0 4413ft 20kts
27-Sep-20 11:07 39.500221 -119.771499 0 4413ft 20kts
27-Sep-20 11:08 39.505463 -119.771492 0 4414ft 13kts
27-Sep-20 11:09 39.505272 -119.772751 196 4415ft 0kts
27-Sep-20 11:10 39.505272 -119.772751 196 4415ft 0kts

Navigation Log

Ident Type
Flight plan parsing failed, navigation log unavailable